Terminal Aerodrome Forecast
Issued by NWS

Home | Current Version | Previous Version | Text Only | Print | Product List | Glossary On
Versions: 1 2 3 4 5 6 7 8 9 10 11 12 13 14 15 16 17 18 19 20 21 22 23 24 25 26 27 28
000
FTUS43 KLOT 212325
TAFMDW
TAF
KMDW 212325Z 2200/2224 20011KT P6SM VCTS BKN040CB
     FM220200 21009KT P6SM SCT040 BKN150
     FM220600 23009KT P6SM VCTS SCT040CB BKN120
      TEMPO 2208/2210 2SM TSRA OVC015CB
     FM221000 25010KT 6SM -SHRA BR OVC020
     FM221300 29011KT P6SM BKN015
     FM221600 32012G18KT P6SM SCT035=

USA.gov is the U.S. government's official web portal to all federal, state and local government web resources and services.